Monteview, Idaho
Current Conditions -  °F | °C
As of 12:53 PM on Thursday 30 Oct 2014 (Local Time) from KRXE Reporting Station
Scattered Clouds Scattered Clouds  
Wind Chill: 58°   Ceiling: Unl
Heat Index: 58°   Visibility: 10mi
Dew Point: 32°   Wind: 3mph
Humidity: 37%   Direction: NA
Pressure: 30.29"   Gusts: NA
Location:  43.94°N, 112.54°W
Report Text: KRXE 301853Z AUTO VRB03KT 10SM SCT090 14/00 A3029 RMK AO2 SLP254 T01440000
Loading
Personal Weather Stations






























Interactive Weather Map
Tropical Storm Tracking
New forecast layout! Learn more

10-Day Weather Forecast

Advertisements
Track Severe Weather on mobile